Detalii statie AGRONICOLESCU [00001CFA]

Toti senzorii

Date Temperatura solului [C]Precipitatii [mm]Voltaj baterie [mV]Leaf Wetness [Min]HC Air temperature [C]HC Relative humidity [%]Punctul de roua [C]
medieminmaxsumaultimatimpmedieminmaxmediemediemin
2018-08-12 11:00:00 0 7382 26.42 24.73 28.63 45.13 13.3 12.9
2018-08-12 12:00:00 0 7382 28.74 27.95 29.53 38.09 12.8 11.8
2018-08-12 13:00:00 0 7382 30.27 29.3 30.91 32.75 11.8 10.3
2018-08-12 14:00:00 0 7382 31.03 29.96 31.69 29.93 11 10.4
2018-08-12 15:00:00 0 7382 31.55 30.44 32.55 27.86 10.4 9.6
2018-08-12 16:00:00 0 7382 31.98 31.13 32.76 27.13 10.3 9.3
2018-08-12 17:00:00 0 7372 31.87 30.68 32.56 26.44 9.9 9.2
2018-08-12 18:00:00 0 7304 31.99 31.13 32.71 25.33 9.4 8.7
2018-08-12 19:00:00 0 7274 30.7 30.01 32.06 27.54 9.6 8.8
2018-08-12 20:00:00 0 7158 29.03 27.08 30.15 34.6 11.4 10.1
2018-08-12 21:00:00 0 7080 25.48 24.55 27.23 45.64 12.6 11.8
2018-08-12 22:00:00 0 7030 23.79 23.07 24.2 49.99 12.5 12
2018-08-12 23:00:00 0 7020 23.09 22.65 23.73 51.68 12.4 12.1
2018-08-13 00:00:00 0 7010 22.2 21.4 22.63 54.44 12.4 12.2
2018-08-13 01:00:00 0 7000 20.56 19.95 21.22 61.07 12.6 12.5
2018-08-13 02:00:00 0 6992 19.37 19.15 19.73 65.97 12.7 12.4
2018-08-13 03:00:00 0 6992 18.29 17.83 19.03 75.85 13.7 12.1
2018-08-13 04:00:00 0 6992 17.91 17.26 18.23 83.4 14.9 14.2
2018-08-13 05:00:00 0 6992 17.39 17.09 17.82 98.69 17.1 16.8
2018-08-13 06:00:00 0 6992 16.33 15.76 16.88 100 16.3 15.7
2018-08-13 07:00:00 0 7000 15.56 15.02 16.14 100 15.5 15
2018-08-13 08:00:00 0 7040 17.88 16.23 19.75 98.58 17.5 16.2
2018-08-13 09:00:00 0 7332 21.95 19.75 24.5 80.37 18 16.2
2018-08-13 10:00:00 0 7392 25.44 24.46 26.32 56.37 15.9 15.1
2018-08-13 11:00:00 0 7382 27.64 26.37 28.76 47.8 15.3 14.5
2018-08-13 12:00:00 0 7382 29.34 28.24 30.38 41.24 14.5 13.5
2018-08-13 13:00:00 0 7382 30.5 29.9 31.44 34.24 12.6 11.7
2018-08-13 14:00:00 0 7382 31.69 30.57 32.9 29.62 11.5 10.5
2018-08-13 15:00:00 0 7382 32 30.97 32.96 28.81 11.2 10.3
2018-08-13 16:00:00 0 7382 32.19 31.6 32.61 28.12 11.1 10.1
2018-08-13 17:00:00 0 7362 32.19 31.55 32.66 27.74 10.9 10.2
2018-08-13 18:00:00 0 7304 31.71 31.24 32.3 27.8 10.5 9.7
2018-08-13 19:00:00 0 7264 30.92 30.46 31.39 28.18 10 9.3
2018-08-13 20:00:00 0 7196 29.4 28.25 30.33 31.15 10.2 9.5
2018-08-13 21:00:00 0 7098 26.35 24.89 27.91 38.32 10.8 10.4
2018-08-13 22:00:00 0 7040 24.14 22.74 25.01 44.19 10.9 10.7
2018-08-13 23:00:00 0 7020 22.91 22.58 23.36 45.08 10.1 9.8
2018-08-14 00:00:00 0 7010 22.12 21.55 22.69 45.59 9.5 9.3
2018-08-14 01:00:00 0 7000 20.35 19.29 21.36 51.09 9.7 9.5
2018-08-14 02:00:00 0 7000 18.32 17.13 19.05 59.28 10 9.4
2018-08-14 03:00:00 0 7000 16.95 16.69 17.48 70.63 11.4 11
2018-08-14 04:00:00 0 6992 16.76 16.1 17.63 70.78 11.2 10.6
2018-08-14 05:00:00 0 6982 15.62 14.27 17.8 82.73 12.4 11.1
2018-08-14 06:00:00 0 6982 15.31 13.99 16.02 91.39 13.7 12.7
2018-08-14 07:00:00 0 7000 14.5 14.07 15.21 100 14.4 14
2018-08-14 08:00:00 0 7030 16.7 14.31 18.97 96.94 16 14.3
2018-08-14 09:00:00 0 7352 21.31 19.2 23.85 58.63 12.4 11.2
2018-08-14 10:00:00 0 7392 26 24.33 27.28 38.27 10.4 9.5